Time;durP1;ratioP1;P1;durP2;ratioP2;P2;SDS_P1;SDS_P2;PMS_P1;PMS_P2;Temp;Humidity;BMP_temperature;BMP_pressure;BME280_temperature;BME280_humidity;BME280_pressure;Samples;Min_cycle;Max_cycle;Signal;HPM_P1;HPM_P2
2022/07/01 00:01:29;;;;;;;;;;;14.30;99.90;;;;;;5034900;28;19914;-74
2022/07/01 00:03:54;;;;;;;;;;;14.30;99.90;;;;;;5031520;28;19921;-74
2022/07/01 00:06:20;;;;;;;;;;;14.20;99.90;;;;;;5034079;28;19940;-74
2022/07/01 00:08:47;;;;;;;;;;;14.20;99.90;;;;;;5034397;28;19963;-74
2022/07/01 00:11:13;;;;;;;;;;;14.10;99.90;;;;;;5034810;28;19921;-74
2022/07/01 00:13:39;;;;;;;;;;;14.10;99.90;;;;;;5033229;28;19913;-74
2022/07/01 00:16:04;;;;;;;;;;;14.10;99.90;;;;;;5031748;28;20232;-74
2022/07/01 00:18:30;;;;;;;;;;;14.10;99.90;;;;;;5035464;28;20204;-74
2022/07/01 00:20:55;;;;;;;;;;;14.10;99.90;;;;;;5037036;28;19952;-74
2022/07/01 00:23:21;;;;;;;;;;;14.10;99.90;;;;;;5036697;28;19918;-74
2022/07/01 00:25:46;;;;;;;;;;;14.00;99.90;;;;;;5038124;28;19913;-74
2022/07/01 00:28:12;;;;;;;;;;;14.00;99.90;;;;;;5032120;28;19920;-74
2022/07/01 00:30:38;;;;;;;;;;;14.00;99.90;;;;;;5036631;28;20564;-74
2022/07/01 00:33:04;;;;;;;;;;;13.90;99.90;;;;;;5037807;28;19913;-75
2022/07/01 00:35:29;;;;;;;;;;;13.90;99.90;;;;;;5036754;28;19968;-75
2022/07/01 00:37:55;;;;;;;;;;;13.90;99.90;;;;;;5036022;28;19913;-74
2022/07/01 00:40:20;;;;;;;;;;;13.90;99.90;;;;;;5038249;28;19913;-74
2022/07/01 00:42:46;;;;;;;;;;;13.90;99.90;;;;;;5037831;28;19966;-74
2022/07/01 00:45:12;;;;;;;;;;;13.90;99.90;;;;;;5030364;28;20004;-74
2022/07/01 00:47:39;;;;;;;;;;;13.90;99.90;;;;;;5049220;28;19924;-74
2022/07/01 00:50:09;;;;;;;;;;;13.90;99.90;;;;;;5031562;28;20007;-75
2022/07/01 00:52:34;;;;;;;;;;;13.90;99.90;;;;;;5027787;28;19920;-74
2022/07/01 00:55:02;;;;;;;;;;;14.00;99.90;;;;;;5035154;28;20224;-74
2022/07/01 00:57:32;;;;;;;;;;;14.10;99.90;;;;;;5030424;28;19917;-74
2022/07/01 00:59:57;;;;;;;;;;;14.10;99.90;;;;;;5036255;28;20308;-74
2022/07/01 01:02:23;;;;;;;;;;;14.20;99.90;;;;;;5036651;28;19928;-75
2022/07/01 01:04:48;;;;;;;;;;;14.20;99.90;;;;;;5027389;28;19925;-74
2022/07/01 01:07:14;;;;;;;;;;;14.20;99.90;;;;;;5036797;28;19917;-75
2022/07/01 01:09:40;;;;;;;;;;;14.20;99.90;;;;;;5035403;28;19983;-75
2022/07/01 01:12:05;;;;;;;;;;;14.20;99.90;;;;;;5024961;28;19983;-75
2022/07/01 01:14:47;;;;;;;;;;;14.10;99.90;;;;;;5033818;28;20358;-74
2022/07/01 01:17:14;;;;;;;;;;;14.10;99.90;;;;;;5035480;28;19920;-75
2022/07/01 01:19:40;;;;;;;;;;;14.20;99.90;;;;;;5034882;28;20304;-75
2022/07/01 01:22:06;;;;;;;;;;;14.10;99.90;;;;;;5034971;28;19913;-77
2022/07/01 01:24:32;;;;;;;;;;;14.10;99.90;;;;;;5037391;28;19914;-75
2022/07/01 01:26:57;;;;;;;;;;;14.10;99.90;;;;;;5036871;28;19913;-74
2022/07/01 01:29:23;;;;;;;;;;;14.10;99.90;;;;;;5033939;28;19914;-74
2022/07/01 01:31:48;;;;;;;;;;;14.10;99.90;;;;;;5034367;28;20372;-74
2022/07/01 01:34:14;;;;;;;;;;;14.10;99.90;;;;;;5034876;28;19917;-74
2022/07/01 01:36:39;;;;;;;;;;;14.10;99.90;;;;;;5037061;28;19921;-74
2022/07/01 01:41:33;;;;;;;;;;;14.10;99.90;;;;;;5034506;28;19917;-75
2022/07/01 01:43:59;;;;;;;;;;;14.10;99.90;;;;;;5032921;28;19944;-75
2022/07/01 01:46:25;;;;;;;;;;;14.10;99.90;;;;;;5028544;28;19996;-73
2022/07/01 01:48:50;;;;;;;;;;;14.10;99.90;;;;;;5034818;28;20290;-74
2022/07/01 01:51:18;;;;;;;;;;;14.10;99.90;;;;;;5035741;28;19913;-74
2022/07/01 01:53:44;;;;;;;;;;;14.00;99.90;;;;;;5035348;28;19928;-74
2022/07/01 01:56:09;;;;;;;;;;;14.00;99.90;;;;;;5029963;28;19914;-74
2022/07/01 01:58:35;;;;;;;;;;;14.00;99.90;;;;;;5036307;28;19959;-74
2022/07/01 02:01:01;;;;;;;;;;;14.00;99.90;;;;;;5032761;28;20367;-75
2022/07/01 02:03:28;;;;;;;;;;;14.00;99.90;;;;;;5031816;28;20197;-75
2022/07/01 02:05:53;;;;;;;;;;;14.00;99.90;;;;;;5035090;28;19920;-77
2022/07/01 02:08:19;;;;;;;;;;;13.90;99.90;;;;;;5035279;28;20228;-77
2022/07/01 02:10:45;;;;;;;;;;;13.90;99.90;;;;;;5029504;28;19915;-81
2022/07/01 02:13:10;;;;;;;;;;;13.90;99.90;;;;;;5035059;28;19917;-75
2022/07/01 02:15:36;;;;;;;;;;;13.80;99.90;;;;;;5034894;28;21514;-74
2022/07/01 02:18:01;;;;;;;;;;;13.80;99.90;;;;;;5036306;28;20272;-76
2022/07/01 02:20:27;;;;;;;;;;;13.80;99.90;;;;;;5031462;28;19909;-81
2022/07/01 02:22:53;;;;;;;;;;;13.80;99.90;;;;;;5034142;28;19917;-78
2022/07/01 02:25:19;;;;;;;;;;;13.80;99.90;;;;;;5034006;28;19925;-74
2022/07/01 02:27:44;;;;;;;;;;;13.80;99.90;;;;;;5035042;28;20215;-74
2022/07/01 02:30:10;;;;;;;;;;;13.70;99.90;;;;;;5031954;28;19909;-75
2022/07/01 02:32:35;;;;;;;;;;;13.80;99.90;;;;;;5033790;28;19917;-74
2022/07/01 02:35:01;;;;;;;;;;;13.80;99.90;;;;;;5034996;28;19917;-75
2022/07/01 02:37:27;;;;;;;;;;;13.70;99.90;;;;;;5034792;28;19909;-74
2022/07/01 02:39:53;;;;;;;;;;;13.70;99.90;;;;;;5027772;28;19914;-75
2022/07/01 02:42:26;;;;;;;;;;;13.70;99.90;;;;;;5030610;28;19928;-75
2022/07/01 02:44:54;;;;;;;;;;;13.70;99.90;;;;;;5034805;28;19924;-74
2022/07/01 02:47:23;;;;;;;;;;;13.70;99.90;;;;;;5066964;28;20003;-75
2022/07/01 02:49:51;;;;;;;;;;;13.70;99.90;;;;;;5024376;28;19967;-76
2022/07/01 02:52:17;;;;;;;;;;;13.70;99.90;;;;;;5022531;28;19917;-75
2022/07/01 02:54:42;;;;;;;;;;;13.70;99.90;;;;;;5028052;28;19910;-77
2022/07/01 02:57:08;;;;;;;;;;;13.70;99.90;;;;;;5063709;28;20011;-76
2022/07/01 02:59:34;;;;;;;;;;;13.60;99.90;;;;;;5021833;28;19913;-74
2022/07/01 03:01:59;;;;;;;;;;;13.60;99.90;;;;;;5031178;28;19959;-77
2022/07/01 03:04:25;;;;;;;;;;;13.60;99.90;;;;;;5034042;28;19923;-78
2022/07/01 03:06:51;;;;;;;;;;;13.50;99.90;;;;;;5033229;28;19948;-75
2022/07/01 03:09:16;;;;;;;;;;;13.50;99.90;;;;;;5034246;28;19909;-77
2022/07/01 03:11:42;;;;;;;;;;;13.50;99.90;;;;;;5034712;28;20265;-75
2022/07/01 03:14:07;;;;;;;;;;;13.60;99.90;;;;;;5026613;28;19917;-73
2022/07/01 03:16:33;;;;;;;;;;;13.50;99.90;;;;;;5031726;28;19914;-78
2022/07/01 03:18:58;;;;;;;;;;;13.50;99.90;;;;;;5034901;28;19913;-75
2022/07/01 03:21:24;;;;;;;;;;;13.60;99.90;;;;;;5032658;28;19916;-74
2022/07/01 03:23:49;;;;;;;;;;;13.50;99.90;;;;;;5034831;28;20201;-75
2022/07/01 03:26:15;;;;;;;;;;;13.50;99.90;;;;;;5032873;28;19913;-75
2022/07/01 03:28:40;;;;;;;;;;;13.50;99.90;;;;;;5065764;28;19919;-75
2022/07/01 03:31:06;;;;;;;;;;;13.50;99.90;;;;;;5067412;28;19913;-77
2022/07/01 03:33:32;;;;;;;;;;;13.50;99.90;;;;;;5032711;28;19917;-74
2022/07/01 03:35:57;;;;;;;;;;;13.40;99.90;;;;;;5034448;28;20243;-75
2022/07/01 03:38:23;;;;;;;;;;;13.40;99.90;;;;;;5032309;28;19921;-75
2022/07/01 03:40:48;;;;;;;;;;;13.40;99.90;;;;;;5031784;28;19959;-75
2022/07/01 03:43:14;;;;;;;;;;;13.40;99.90;;;;;;5030945;28;19921;-80
2022/07/01 03:45:39;;;;;;;;;;;13.50;99.90;;;;;;5032915;28;19909;-75
2022/07/01 03:48:05;;;;;;;;;;;13.50;99.90;;;;;;5032171;28;19913;-75
2022/07/01 03:50:31;;;;;;;;;;;13.50;99.90;;;;;;5032723;28;19913;-74
2022/07/01 03:55:41;;;;;;;;;;;13.50;99.90;;;;;;5036477;28;20021;-74
2022/07/01 03:58:06;;;;;;;;;;;13.40;99.90;;;;;;5036655;28;20000;-76
2022/07/01 04:00:35;;;;;;;;;;;13.40;99.90;;;;;;5038331;28;19995;-74
2022/07/01 04:03:01;;;;;;;;;;;13.40;99.90;;;;;;5036833;28;19917;-76
2022/07/01 04:05:26;;;;;;;;;;;13.50;99.90;;;;;;5033496;28;20283;-76
2022/07/01 04:07:52;;;;;;;;;;;13.50;99.90;;;;;;5035319;28;19909;-79
2022/07/01 04:10:18;;;;;;;;;;;13.40;99.90;;;;;;5036165;28;19927;-77
2022/07/01 04:12:43;;;;;;;;;;;13.50;99.90;;;;;;5037583;28;19929;-75
2022/07/01 04:15:09;;;;;;;;;;;13.50;99.90;;;;;;5036319;28;20205;-77
2022/07/01 04:17:35;;;;;;;;;;;13.50;99.90;;;;;;5034205;28;19913;-76
2022/07/01 04:20:00;;;;;;;;;;;13.60;99.90;;;;;;5036317;28;19910;-75
2022/07/01 04:22:32;;;;;;;;;;;13.60;99.90;;;;;;5036589;28;19913;-75
2022/07/01 04:24:58;;;;;;;;;;;13.60;99.90;;;;;;5037290;28;19942;-75
2022/07/01 04:27:23;;;;;;;;;;;13.60;99.90;;;;;;5033270;28;19921;-75
2022/07/01 04:29:49;;;;;;;;;;;13.60;99.90;;;;;;5032688;28;19917;-78
2022/07/01 04:32:14;;;;;;;;;;;13.70;99.90;;;;;;5032936;28;20343;-77
2022/07/01 04:34:40;;;;;;;;;;;13.70;99.90;;;;;;5033323;28;19917;-75
2022/07/01 04:37:05;;;;;;;;;;;13.70;99.90;;;;;;5035258;28;20000;-77
2022/07/01 04:39:31;;;;;;;;;;;13.70;99.90;;;;;;5034845;28;19920;-77
2022/07/01 04:41:59;;;;;;;;;;;13.70;99.90;;;;;;5037759;28;20323;-75
2022/07/01 04:44:25;;;;;;;;;;;13.70;99.90;;;;;;5036484;28;19932;-76
2022/07/01 04:46:51;;;;;;;;;;;13.70;99.90;;;;;;5037620;28;20288;-76
2022/07/01 04:49:17;;;;;;;;;;;13.80;99.90;;;;;;5034147;28;19913;-78
2022/07/01 04:51:42;;;;;;;;;;;13.80;99.90;;;;;;5037083;28;19920;-76
2022/07/01 04:54:08;;;;;;;;;;;13.80;99.90;;;;;;5036160;28;19922;-76
2022/07/01 04:56:34;;;;;;;;;;;13.80;99.90;;;;;;5037766;28;19915;-78
2022/07/01 04:59:00;;;;;;;;;;;13.90;99.90;;;;;;5036118;28;19913;-76
2022/07/01 05:01:26;;;;;;;;;;;13.80;99.90;;;;;;5034967;28;19967;-77
2022/07/01 05:03:52;;;;;;;;;;;13.80;99.90;;;;;;5037409;28;19940;-77
2022/07/01 05:06:17;;;;;;;;;;;13.90;99.90;;;;;;5032347;28;19962;-78
2022/07/01 05:08:43;;;;;;;;;;;13.90;99.90;;;;;;5032719;28;19909;-77
2022/07/01 05:11:09;;;;;;;;;;;14.00;99.90;;;;;;5036289;28;19925;-77
2022/07/01 05:13:34;;;;;;;;;;;14.10;99.90;;;;;;5036342;28;19925;-78
2022/07/01 05:16:00;;;;;;;;;;;14.10;99.90;;;;;;5027555;28;19967;-76
2022/07/01 05:23:54;;;;;;;;;;;14.40;99.90;;;;;;5036737;28;20220;-74
2022/07/01 05:26:20;;;;;;;;;;;14.30;99.90;;;;;;5037551;28;19917;-74
2022/07/01 05:28:45;;;;;;;;;;;14.30;99.90;;;;;;5036809;28;20208;-82
2022/07/01 05:31:11;;;;;;;;;;;14.40;99.90;;;;;;5034280;28;19965;-74
2022/07/01 05:33:36;;;;;;;;;;;14.40;99.90;;;;;;5025314;28;20331;-76
2022/07/01 05:36:02;;;;;;;;;;;14.40;99.90;;;;;;5034752;28;20000;-79
2022/07/01 05:38:28;;;;;;;;;;;14.50;99.90;;;;;;5033835;28;19970;-85
2022/07/01 05:40:53;;;;;;;;;;;14.40;99.90;;;;;;5034340;28;20319;-75
2022/07/01 05:43:19;;;;;;;;;;;14.40;99.90;;;;;;5033721;28;20018;-75
2022/07/01 05:45:45;;;;;;;;;;;14.40;99.90;;;;;;5033453;28;20008;-75
2022/07/01 05:48:11;;;;;;;;;;;14.40;99.90;;;;;;5034813;28;19920;-75
2022/07/01 05:50:36;;;;;;;;;;;14.40;99.90;;;;;;5034481;28;20346;-75
2022/07/01 05:53:02;;;;;;;;;;;14.50;99.90;;;;;;5034292;28;20263;-77
2022/07/01 05:55:28;;;;;;;;;;;14.50;99.90;;;;;;5033241;28;19917;-86
2022/07/01 05:57:54;;;;;;;;;;;14.50;99.90;;;;;;5032560;28;19921;-74
2022/07/01 06:00:19;;;;;;;;;;;14.50;99.90;;;;;;5034174;28;20027;-74
2022/07/01 06:02:45;;;;;;;;;;;14.50;99.90;;;;;;5033794;28;19960;-74
2022/07/01 06:05:13;;;;;;;;;;;14.60;99.90;;;;;;5034945;28;19913;-82
2022/07/01 06:07:40;;;;;;;;;;;14.60;99.90;;;;;;5062191;28;19917;-78
2022/07/01 06:10:06;;;;;;;;;;;14.60;99.90;;;;;;5027942;28;19957;-77
2022/07/01 06:12:32;;;;;;;;;;;14.60;99.90;;;;;;5027886;28;19925;-79
2022/07/01 06:14:57;;;;;;;;;;;14.70;99.90;;;;;;5034677;28;19933;-78
2022/07/01 06:17:23;;;;;;;;;;;14.70;99.90;;;;;;5017752;28;20055;-79
2022/07/01 06:19:49;;;;;;;;;;;14.70;99.90;;;;;;5034503;28;19928;-80
2022/07/01 06:22:17;;;;;;;;;;;14.80;99.90;;;;;;5033256;28;20209;-78
2022/07/01 06:24:44;;;;;;;;;;;14.80;99.90;;;;;;5036263;28;20012;-76
2022/07/01 06:27:10;;;;;;;;;;;14.80;99.90;;;;;;5035742;28;19920;-77
2022/07/01 06:29:36;;;;;;;;;;;14.90;99.90;;;;;;5033808;28;19918;-79
2022/07/01 06:32:03;;;;;;;;;;;14.90;99.90;;;;;;5034463;28;19912;-76
2022/07/01 06:34:28;;;;;;;;;;;14.80;99.90;;;;;;5035727;28;19921;-77
2022/07/01 06:36:55;;;;;;;;;;;14.80;99.90;;;;;;5034033;28;19920;-77
2022/07/01 06:39:21;;;;;;;;;;;15.00;99.90;;;;;;5060876;28;19914;-75
2022/07/01 06:41:46;;;;;;;;;;;15.10;99.90;;;;;;5026940;28;20186;-76
2022/07/01 06:44:13;;;;;;;;;;;15.10;99.90;;;;;;5032680;28;19932;-75
2022/07/01 06:46:38;;;;;;;;;;;15.20;99.90;;;;;;5035375;28;19913;-78
2022/07/01 06:49:04;;;;;;;;;;;15.20;99.90;;;;;;5031874;28;19917;-78
2022/07/01 06:51:30;;;;;;;;;;;15.30;99.90;;;;;;5032033;28;19944;-77
2022/07/01 06:53:55;;;;;;;;;;;15.40;99.90;;;;;;5021698;28;19917;-76
2022/07/01 06:56:21;;;;;;;;;;;15.50;99.90;;;;;;5032347;28;20288;-78
2022/07/01 06:58:47;;;;;;;;;;;15.70;99.90;;;;;;5031902;28;19913;-77
2022/07/01 07:01:12;;;;;;;;;;;15.90;99.90;;;;;;5032816;28;20517;-76
2022/07/01 07:03:38;;;;;;;;;;;15.90;99.90;;;;;;5031639;28;19943;-76
2022/07/01 07:06:03;;;;;;;;;;;15.90;99.90;;;;;;5033181;28;19979;-76
2022/07/01 07:08:30;;;;;;;;;;;16.00;99.90;;;;;;5031057;28;19924;-76
2022/07/01 07:10:55;;;;;;;;;;;16.10;99.90;;;;;;5032986;28;19921;-76
2022/07/01 07:13:21;;;;;;;;;;;16.10;99.90;;;;;;5030669;28;20228;-76
2022/07/01 07:15:47;;;;;;;;;;;16.20;99.90;;;;;;5032689;28;19913;-77
2022/07/01 07:18:12;;;;;;;;;;;16.30;99.90;;;;;;5031693;28;19936;-80
2022/07/01 07:20:38;;;;;;;;;;;16.20;99.90;;;;;;5031030;28;19924;-75
2022/07/01 07:23:04;;;;;;;;;;;16.30;99.90;;;;;;5032208;28;19990;-76
2022/07/01 07:25:29;;;;;;;;;;;16.50;99.90;;;;;;5029994;28;19917;-79
2022/07/01 07:27:55;;;;;;;;;;;16.70;99.90;;;;;;5031953;28;19948;-76
2022/07/01 07:30:21;;;;;;;;;;;16.80;99.90;;;;;;5030040;28;19983;-77
2022/07/01 07:32:47;;;;;;;;;;;16.90;99.90;;;;;;5030397;28;19955;-76
2022/07/01 07:35:13;;;;;;;;;;;16.90;99.90;;;;;;5031824;28;19941;-77
2022/07/01 07:37:38;;;;;;;;;;;16.90;99.90;;;;;;5030799;28;20279;-78
2022/07/01 07:40:06;;;;;;;;;;;16.90;99.90;;;;;;5032054;28;19921;-78
2022/07/01 07:42:32;;;;;;;;;;;17.00;99.90;;;;;;5032021;28;19913;-76
2022/07/01 07:44:58;;;;;;;;;;;17.00;99.90;;;;;;5031991;28;20354;-76
2022/07/01 07:47:23;;;;;;;;;;;17.10;99.90;;;;;;5032116;28;19913;-78
2022/07/01 07:49:49;;;;;;;;;;;17.20;99.90;;;;;;5033187;28;20320;-78
2022/07/01 07:52:14;;;;;;;;;;;17.50;99.90;;;;;;5033803;28;20299;-75
2022/07/01 07:54:40;;;;;;;;;;;17.60;99.90;;;;;;5023970;28;20221;-75
2022/07/01 07:57:06;;;;;;;;;;;17.50;99.90;;;;;;5023125;28;19921;-76
2022/07/01 07:59:32;;;;;;;;;;;17.30;99.90;;;;;;5031446;28;20323;-76
2022/07/01 08:01:57;;;;;;;;;;;17.30;99.90;;;;;;5032535;28;19952;-75
2022/07/01 08:04:23;;;;;;;;;;;17.70;99.90;;;;;;5031516;28;19921;-75
2022/07/01 08:06:48;;;;;;;;;;;18.10;99.90;;;;;;5033182;28;20326;-75
2022/07/01 08:09:14;;;;;;;;;;;18.60;99.90;;;;;;5033633;28;20212;-76
2022/07/01 08:11:39;;;;;;;;;;;19.00;99.90;;;;;;5032185;28;20018;-75
2022/07/01 08:14:05;;;;;;;;;;;19.10;99.90;;;;;;5032441;28;20225;-75
2022/07/01 08:16:31;;;;;;;;;;;19.10;99.90;;;;;;5032824;28;19913;-77
2022/07/01 08:18:56;;;;;;;;;;;19.30;99.90;;;;;;5031948;28;20028;-78
2022/07/01 08:21:22;;;;;;;;;;;19.30;99.90;;;;;;5032180;28;20224;-76
2022/07/01 08:23:47;;;;;;;;;;;19.40;99.90;;;;;;5032870;28;19917;-75
2022/07/01 08:26:17;;;;;;;;;;;19.40;99.90;;;;;;5031445;28;20552;-75
2022/07/01 08:28:42;;;;;;;;;;;19.10;99.90;;;;;;5030522;28;20273;-75
2022/07/01 08:31:08;;;;;;;;;;;18.70;99.90;;;;;;5031815;28;19968;-75
2022/07/01 08:33:34;;;;;;;;;;;18.60;99.90;;;;;;5032138;28;20378;-75
2022/07/01 08:35:59;;;;;;;;;;;18.60;99.90;;;;;;5032727;28;20247;-77
2022/07/01 08:38:25;;;;;;;;;;;18.90;99.90;;;;;;5031484;28;19913;-75
2022/07/01 08:40:51;;;;;;;;;;;19.20;99.90;;;;;;5034330;28;19964;-75
2022/07/01 08:43:16;;;;;;;;;;;19.60;99.90;;;;;;5035322;28;20011;-76
2022/07/01 08:45:42;;;;;;;;;;;20.10;99.90;;;;;;5034134;28;19962;-77
2022/07/01 08:48:08;;;;;;;;;;;20.50;99.90;;;;;;5034631;28;20263;-76
2022/07/01 08:50:35;;;;;;;;;;;20.90;99.90;;;;;;5034435;28;19960;-77
2022/07/01 08:53:00;;;;;;;;;;;20.90;99.90;;;;;;5035612;28;19940;-77
2022/07/01 08:55:26;;;;;;;;;;;21.10;99.90;;;;;;5035479;28;20256;-77
2022/07/01 08:57:52;;;;;;;;;;;21.20;99.90;;;;;;5026475;28;19913;-77
2022/07/01 09:00:18;;;;;;;;;;;21.30;99.90;;;;;;5027091;28;19913;-76
2022/07/01 09:02:57;;;;;;;;;;;21.30;99.90;;;;;;5034141;28;19917;-75
2022/07/01 09:05:23;;;;;;;;;;;21.50;99.90;;;;;;5034269;28;20308;-76
2022/07/01 09:07:55;;;;;;;;;;;21.70;99.90;;;;;;5032536;28;19991;-77
2022/07/01 09:10:21;;;;;;;;;;;21.70;99.90;;;;;;5030715;28;20239;-77
2022/07/01 09:12:47;;;;;;;;;;;21.40;99.90;;;;;;5045078;28;19925;-77
2022/07/01 09:15:25;;;;;;;;;;;21.00;99.90;;;;;;5032639;28;19948;-76
2022/07/01 09:17:51;;;;;;;;;;;20.40;99.90;;;;;;5033804;28;19921;-76
2022/07/01 09:20:27;;;;;;;;;;;19.80;99.90;;;;;;5033739;28;19917;-75
2022/07/01 09:23:00;;;;;;;;;;;19.80;99.90;;;;;;5033518;28;19913;-77
2022/07/01 09:25:27;;;;;;;;;;;20.00;99.90;;;;;;5030971;28;19920;-77
2022/07/01 09:28:13;;;;;;;;;;;20.20;99.90;;;;;;5032424;28;20323;-78
2022/07/01 09:30:40;;;;;;;;;;;19.90;99.90;;;;;;5034028;28;19989;-77
2022/07/01 09:33:10;;;;;;;;;;;19.60;99.90;;;;;;5035066;28;19913;-77
2022/07/01 09:35:36;;;;;;;;;;;19.30;99.90;;;;;;5032632;28;19913;-77
2022/07/01 09:38:02;;;;;;;;;;;18.90;99.90;;;;;;5034037;28;20004;-75
2022/07/01 09:40:48;;;;;;;;;;;18.80;99.90;;;;;;5034803;28;19917;-77
2022/07/01 09:43:15;;;;;;;;;;;18.50;99.90;;;;;;5034783;28;19952;-76
2022/07/01 09:45:48;;;;;;;;;;;18.40;99.90;;;;;;5034608;28;19913;-77
2022/07/01 09:48:14;;;;;;;;;;;18.90;99.90;;;;;;5033668;28;20311;-75
2022/07/01 09:50:39;;;;;;;;;;;19.20;99.90;;;;;;5034783;28;19988;-76
2022/07/01 09:53:05;;;;;;;;;;;20.10;99.90;;;;;;5033480;28;19913;-76
2022/07/01 09:55:31;;;;;;;;;;;20.50;99.90;;;;;;5034165;28;19955;-78
2022/07/01 09:57:57;;;;;;;;;;;21.00;99.90;;;;;;5031718;28;20358;-76
2022/07/01 10:00:22;;;;;;;;;;;21.20;99.90;;;;;;5023034;28;19921;-76
2022/07/01 10:02:48;;;;;;;;;;;20.90;99.90;;;;;;5032025;28;20043;-75
2022/07/01 10:05:17;;;;;;;;;;;20.40;99.90;;;;;;5022468;28;20331;-74
2022/07/01 10:07:58;;;;;;;;;;;20.30;99.90;;;;;;5034779;28;19925;-77
2022/07/01 10:10:42;;;;;;;;;;;20.20;99.90;;;;;;5029796;28;19928;-75
2022/07/01 10:13:10;;;;;;;;;;;20.20;99.90;;;;;;5034303;28;19932;-77
2022/07/01 10:15:36;;;;;;;;;;;20.40;99.90;;;;;;5065690;28;19920;-77
2022/07/01 10:18:02;;;;;;;;;;;20.70;99.90;;;;;;5033977;28;19913;-77
2022/07/01 10:20:28;;;;;;;;;;;20.30;99.90;;;;;;5032020;28;19913;-76
2022/07/01 10:23:01;;;;;;;;;;;19.90;99.90;;;;;;5034338;28;20011;-76
2022/07/01 10:25:39;;;;;;;;;;;19.80;99.90;;;;;;5032182;28;19917;-77
2022/07/01 10:28:23;;;;;;;;;;;19.60;99.90;;;;;;5034010;28;19921;-76
2022/07/01 10:31:02;;;;;;;;;;;19.60;99.90;;;;;;5034269;28;20376;-77
2022/07/01 10:33:37;;;;;;;;;;;20.20;99.90;;;;;;5032499;28;20114;-76
2022/07/01 10:36:18;;;;;;;;;;;21.10;99.90;;;;;;5032897;28;20011;-77
2022/07/01 10:41:31;;;;;;;;;;;22.30;99.90;;;;;;5030995;28;19921;-76
2022/07/01 10:43:57;;;;;;;;;;;22.30;99.90;;;;;;5030920;28;19920;-75
2022/07/01 10:46:45;;;;;;;;;;;22.10;99.90;;;;;;5033276;28;20374;-76
2022/07/01 10:49:15;;;;;;;;;;;22.00;99.90;;;;;;5032068;28;19913;-76
2022/07/01 10:51:48;;;;;;;;;;;21.60;99.90;;;;;;5030889;28;19917;-76
2022/07/01 10:54:33;;;;;;;;;;;21.20;99.90;;;;;;5030844;28;20308;-76
2022/07/01 10:57:18;;;;;;;;;;;20.80;99.90;;;;;;5032730;28;20028;-75
2022/07/01 10:59:51;;;;;;;;;;;20.40;99.90;;;;;;5033610;28;19913;-76
2022/07/01 11:02:20;;;;;;;;;;;20.20;99.90;;;;;;5032303;28;19944;-76
2022/07/01 11:04:46;;;;;;;;;;;20.90;99.90;;;;;;5024348;28;19925;-75
2022/07/01 11:07:12;;;;;;;;;;;21.30;99.90;;;;;;5064306;28;20326;-75
2022/07/01 11:09:38;;;;;;;;;;;21.70;99.90;;;;;;5033112;28;19913;-78
2022/07/01 11:12:05;;;;;;;;;;;22.30;99.90;;;;;;5031538;28;20232;-78
2022/07/01 11:14:38;;;;;;;;;;;22.30;99.90;;;;;;5032050;28;20411;-75
2022/07/01 11:17:04;;;;;;;;;;;21.70;99.90;;;;;;5013611;28;20008;-76
2022/07/01 11:19:29;;;;;;;;;;;21.00;99.90;;;;;;5031765;28;20016;-77
2022/07/01 11:21:55;;;;;;;;;;;20.50;99.90;;;;;;5029830;28;20356;-78
2022/07/01 11:24:21;;;;;;;;;;;20.10;99.90;;;;;;5031185;28;19983;-79
2022/07/01 11:26:47;;;;;;;;;;;19.90;99.90;;;;;;5032515;28;20308;-80
2022/07/01 11:29:13;;;;;;;;;;;20.20;99.90;;;;;;5033310;28;20232;-78
2022/07/01 11:31:39;;;;;;;;;;;21.00;99.90;;;;;;5033766;28;19921;-76
2022/07/01 11:34:06;;;;;;;;;;;21.70;99.90;;;;;;5031327;28;20259;-77
2022/07/01 11:39:23;;;;;;;;;;;22.80;99.90;;;;;;5032568;28;20364;-78
2022/07/01 11:41:56;;;;;;;;;;;23.00;99.90;;;;;;5032318;28;20374;-77
2022/07/01 11:44:36;;;;;;;;;;;23.00;99.90;;;;;;5031537;28;20310;-76
2022/07/01 11:47:03;;;;;;;;;;;23.40;99.90;;;;;;5032058;28;19920;-78
2022/07/01 11:49:28;;;;;;;;;;;23.60;99.90;;;;;;5031416;28;19975;-78
2022/07/01 11:51:55;;;;;;;;;;;23.20;99.90;;;;;;5032027;28;19917;-75
2022/07/01 11:54:22;;;;;;;;;;;23.40;99.90;;;;;;5032321;28;19913;-77
2022/07/01 11:56:47;;;;;;;;;;;23.70;99.90;;;;;;5030590;28;19913;-77
2022/07/01 11:59:13;;;;;;;;;;;23.50;99.90;;;;;;5030188;28;20216;-75
2022/07/01 12:01:39;;;;;;;;;;;23.20;99.90;;;;;;5028703;28;19921;-76
2022/07/01 12:04:06;;;;;;;;;;;23.50;99.90;;;;;;5033841;28;19920;-76
2022/07/01 12:06:32;;;;;;;;;;;23.50;99.90;;;;;;5030670;28;19917;-76
2022/07/01 12:08:58;;;;;;;;;;;23.70;99.90;;;;;;5031467;28;19917;-75
2022/07/01 12:11:25;;;;;;;;;;;23.90;99.90;;;;;;5032724;28;19960;-77
2022/07/01 12:13:51;;;;;;;;;;;23.60;99.90;;;;;;5031695;28;19913;-76
2022/07/01 12:16:17;;;;;;;;;;;23.70;99.90;;;;;;5025377;28;20381;-75
2022/07/01 12:18:53;;;;;;;;;;;24.00;99.90;;;;;;5034398;28;19925;-77
2022/07/01 12:21:18;;;;;;;;;;;23.90;97.70;;;;;;5035326;28;19944;-77
2022/07/01 12:24:01;;;;;;;;;;;23.50;99.90;;;;;;5033530;28;19943;-76
2022/07/01 12:26:27;;;;;;;;;;;22.90;99.90;;;;;;5028166;28;19940;-78
2022/07/01 12:28:54;;;;;;;;;;;22.60;99.90;;;;;;5035976;28;19921;-78
2022/07/01 12:31:19;;;;;;;;;;;22.60;99.90;;;;;;5036011;28;20201;-78
2022/07/01 12:33:49;;;;;;;;;;;22.40;99.90;;;;;;5035083;28;19917;-75
2022/07/01 12:36:15;;;;;;;;;;;22.20;99.90;;;;;;5035255;28;19917;-76
2022/07/01 12:38:41;;;;;;;;;;;21.90;99.90;;;;;;5035201;28;20011;-78
2022/07/01 12:41:25;;;;;;;;;;;21.70;99.90;;;;;;5036944;28;20012;-76
2022/07/01 12:43:51;;;;;;;;;;;21.70;99.90;;;;;;5033189;28;19925;-78
2022/07/01 12:46:27;;;;;;;;;;;22.00;99.90;;;;;;5035440;28;19967;-76
2022/07/01 12:48:52;;;;;;;;;;;22.40;99.90;;;;;;5032556;28;20288;-76
2022/07/01 12:51:18;;;;;;;;;;;22.50;99.90;;;;;;5032693;28;20182;-79
2022/07/01 12:53:44;;;;;;;;;;;22.80;99.90;;;;;;5030591;28;19917;-81
2022/07/01 12:56:21;;;;;;;;;;;22.70;99.90;;;;;;5032906;28;19918;-76
2022/07/01 12:58:46;;;;;;;;;;;22.30;99.90;;;;;;5032746;28;20000;-75
2022/07/01 13:01:13;;;;;;;;;;;21.80;99.90;;;;;;5032558;28;20024;-75
2022/07/01 13:03:38;;;;;;;;;;;21.40;99.90;;;;;;5035113;28;20347;-76
2022/07/01 13:06:04;;;;;;;;;;;21.30;99.90;;;;;;5033559;28;19967;-78
2022/07/01 13:08:30;;;;;;;;;;;21.60;99.90;;;;;;5034021;28;19952;-78
2022/07/01 13:10:56;;;;;;;;;;;21.90;99.90;;;;;;5035628;28;19920;-76
2022/07/01 13:13:24;;;;;;;;;;;21.90;99.90;;;;;;5034799;28;19924;-77
2022/07/01 13:15:52;;;;;;;;;;;22.20;99.90;;;;;;5035195;28;20211;-78
2022/07/01 13:18:17;;;;;;;;;;;22.50;99.90;;;;;;5034468;28;19920;-76
2022/07/01 13:20:46;;;;;;;;;;;22.80;99.90;;;;;;5031534;28;20335;-76
2022/07/01 13:23:11;;;;;;;;;;;23.10;99.90;;;;;;5033985;28;20296;-76
2022/07/01 13:25:37;;;;;;;;;;;23.00;99.90;;;;;;5026526;28;19992;-77
2022/07/01 13:28:03;;;;;;;;;;;22.90;99.90;;;;;;5031931;28;19962;-76
2022/07/01 13:30:29;;;;;;;;;;;22.70;99.90;;;;;;5033090;28;20226;-76
2022/07/01 13:32:54;;;;;;;;;;;22.70;99.90;;;;;;5034037;28;20011;-77
2022/07/01 13:35:21;;;;;;;;;;;22.90;99.90;;;;;;5025430;28;19949;-80
2022/07/01 13:37:47;;;;;;;;;;;23.00;99.90;;;;;;5034665;28;20209;-77
2022/07/01 13:40:12;;;;;;;;;;;23.00;99.90;;;;;;5035324;28;19924;-76
2022/07/01 13:42:38;;;;;;;;;;;23.10;99.90;;;;;;5035610;28;19913;-77
2022/07/01 13:45:04;;;;;;;;;;;23.10;99.90;;;;;;5032148;28;19984;-76
2022/07/01 13:47:29;;;;;;;;;;;22.90;99.90;;;;;;5065699;28;19921;-74
2022/07/01 13:49:55;;;;;;;;;;;22.50;99.90;;;;;;5034525;28;20217;-78
2022/07/01 13:52:21;;;;;;;;;;;22.10;99.90;;;;;;5034896;28;20016;-78
2022/07/01 13:54:46;;;;;;;;;;;22.10;99.90;;;;;;5028676;28;19920;-76
2022/07/01 13:57:12;;;;;;;;;;;21.90;99.90;;;;;;5036125;28;20330;-77
2022/07/01 13:59:37;;;;;;;;;;;21.60;99.90;;;;;;5033466;28;19913;-76
2022/07/01 14:02:05;;;;;;;;;;;21.30;99.90;;;;;;5029679;28;19999;-78
2022/07/01 14:04:30;;;;;;;;;;;21.10;99.90;;;;;;5034332;28;19963;-78
2022/07/01 14:06:56;;;;;;;;;;;21.10;99.90;;;;;;5029637;28;19921;-76
2022/07/01 14:09:22;;;;;;;;;;;21.40;99.90;;;;;;5031871;28;20362;-77
2022/07/01 14:11:48;;;;;;;;;;;21.60;99.90;;;;;;5031830;28;20279;-76
2022/07/01 14:14:13;;;;;;;;;;;21.80;99.90;;;;;;5032880;28;19917;-76
2022/07/01 14:16:39;;;;;;;;;;;22.00;99.90;;;;;;5032672;28;19921;-79
2022/07/01 14:19:04;;;;;;;;;;;22.20;99.90;;;;;;5032095;28;19917;-76
2022/07/01 14:21:30;;;;;;;;;;;22.30;99.90;;;;;;5030842;28;19923;-75
2022/07/01 14:23:56;;;;;;;;;;;22.30;99.90;;;;;;5029261;28;20216;-77
2022/07/01 14:26:21;;;;;;;;;;;22.60;99.90;;;;;;5033954;28;19913;-76
2022/07/01 14:28:47;;;;;;;;;;;22.70;99.90;;;;;;5033216;28;19920;-76
2022/07/01 14:31:12;;;;;;;;;;;22.60;99.90;;;;;;5034087;28;20378;-76